Time;durP1;ratioP1;P1;durP2;ratioP2;P2;SDS_P1;SDS_P2;PMS_P1;PMS_P2;Temp;Humidity;BMP_temperature;BMP_pressure;BME280_temperature;BME280_humidity;BME280_pressure;Samples;Min_cycle;Max_cycle;Signal;HPM_P1;HPM_P2
2021/12/21 00:02:07;;;;;;;;;;;3.10;81.70;;;;;;5057396;28;19912;-76
2021/12/21 00:04:32;;;;;;;;;;;3.10;81.70;;;;;;5075054;28;20007;-76
2021/12/21 00:06:58;;;;;;;;;;;3.10;81.70;;;;;;5056792;28;19915;-78
2021/12/21 00:09:23;;;;;;;;;;;3.10;81.70;;;;;;5056856;28;19908;-76
2021/12/21 00:11:49;;;;;;;;;;;3.10;81.70;;;;;;5056751;28;19944;-78
2021/12/21 00:15:21;;;;;;;;;;;3.10;81.70;;;;;;5074418;28;19916;-77
2021/12/21 00:17:42;;;;;;;;;;;3.10;81.70;;;;;;5061267;28;20312;-77
2021/12/21 00:23:04;;;;;;;;;;;3.00;81.70;;;;;;5074901;28;19908;-77
2021/12/21 00:25:16;;;;;;;;;;;3.00;81.60;;;;;;5074396;28;19904;-77
2021/12/21 00:27:44;;;;;;;;;;;3.00;81.60;;;;;;5056596;28;19904;-77
2021/12/21 00:30:09;;;;;;;;;;;2.90;81.60;;;;;;5056136;28;19904;-77
2021/12/21 00:32:35;;;;;;;;;;;2.90;81.70;;;;;;5056173;28;19914;-77
2021/12/21 00:35:00;;;;;;;;;;;2.90;81.60;;;;;;5056411;28;20059;-77
2021/12/21 00:37:28;;;;;;;;;;;2.90;81.70;;;;;;5056378;28;19912;-76
2021/12/21 00:39:53;;;;;;;;;;;2.80;81.70;;;;;;5056187;28;19935;-77
2021/12/21 00:42:19;;;;;;;;;;;2.80;81.70;;;;;;5056470;28;19908;-78
2021/12/21 00:44:44;;;;;;;;;;;2.80;81.70;;;;;;5056111;28;19955;-77
2021/12/21 00:47:10;;;;;;;;;;;2.80;81.70;;;;;;5056214;28;20326;-77
2021/12/21 00:49:37;;;;;;;;;;;2.70;81.70;;;;;;5056227;28;19908;-77
2021/12/21 00:52:02;;;;;;;;;;;2.70;81.70;;;;;;5056088;28;19908;-77
2021/12/21 00:54:28;;;;;;;;;;;2.60;81.70;;;;;;5056033;28;19911;-78
2021/12/21 00:56:53;;;;;;;;;;;2.70;81.70;;;;;;5073976;28;19908;-79
2021/12/21 00:59:19;;;;;;;;;;;2.60;81.70;;;;;;5055848;28;19904;-78
2021/12/21 01:01:45;;;;;;;;;;;2.60;81.80;;;;;;5055928;28;19953;-78
2021/12/21 01:04:20;;;;;;;;;;;2.60;81.90;;;;;;5055943;28;19912;-78
2021/12/21 01:07:16;;;;;;;;;;;2.50;81.90;;;;;;5055701;28;19911;-78
2021/12/21 01:12:12;;;;;;;;;;;2.50;82.00;;;;;;5073603;28;19916;-78
2021/12/21 01:15:03;;;;;;;;;;;2.50;81.90;;;;;;5073338;28;19923;-78
2021/12/21 01:17:36;;;;;;;;;;;2.50;82.00;;;;;;5073368;28;19911;-77
2021/12/21 01:20:13;;;;;;;;;;;2.50;81.90;;;;;;5073576;28;19905;-78
2021/12/21 01:23:04;;;;;;;;;;;2.40;81.90;;;;;;5073464;28;19931;-77
2021/12/21 01:25:38;;;;;;;;;;;2.40;81.90;;;;;;5073392;28;19912;-78
2021/12/21 01:30:45;;;;;;;;;;;2.40;82.10;;;;;;5073682;28;19904;-78
2021/12/21 01:35:46;;;;;;;;;;;2.30;82.10;;;;;;5073291;28;20359;-78
2021/12/21 01:40:46;;;;;;;;;;;2.30;82.20;;;;;;5073740;28;19904;-78
2021/12/21 01:51:25;;;;;;;;;;;2.20;82.20;;;;;;5073584;28;19915;-78
2021/12/21 01:53:51;;;;;;;;;;;2.20;82.20;;;;;;5055116;28;20266;-78
2021/12/21 01:56:17;;;;;;;;;;;2.30;82.20;;;;;;5055095;28;19987;-78
2021/12/21 01:58:42;;;;;;;;;;;2.30;82.20;;;;;;5055102;28;19947;-78
2021/12/21 02:01:12;;;;;;;;;;;2.20;82.20;;;;;;5055143;28;19954;-77
2021/12/21 02:03:38;;;;;;;;;;;2.20;82.20;;;;;;5055070;28;19958;-78
2021/12/21 02:06:04;;;;;;;;;;;2.20;82.10;;;;;;5073146;28;19904;-78
2021/12/21 02:08:30;;;;;;;;;;;2.20;82.20;;;;;;5055428;28;20006;-78
2021/12/21 02:11:00;;;;;;;;;;;2.10;82.20;;;;;;5073050;28;19904;-78
2021/12/21 02:13:32;;;;;;;;;;;2.10;82.20;;;;;;5072877;28;19958;-77
2021/12/21 02:15:57;;;;;;;;;;;2.10;82.90;;;;;;5055179;28;20309;-78
2021/12/21 02:21:13;;;;;;;;;;;2.10;82.30;;;;;;5073304;28;19908;-77
2021/12/21 02:23:41;;;;;;;;;;;2.00;82.30;;;;;;5073031;28;19905;-78
2021/12/21 02:26:38;;;;;;;;;;;2.00;82.40;;;;;;5055128;28;19987;-78
2021/12/21 02:29:13;;;;;;;;;;;2.00;82.40;;;;;;5055459;28;19916;-78
2021/12/21 02:31:40;;;;;;;;;;;2.00;82.40;;;;;;5054858;28;19909;-78
2021/12/21 02:34:07;;;;;;;;;;;2.00;82.30;;;;;;5054826;28;19905;-79
2021/12/21 02:36:33;;;;;;;;;;;2.00;82.20;;;;;;5054881;28;19916;-77
2021/12/21 02:38:59;;;;;;;;;;;2.00;82.30;;;;;;5054853;28;19904;-78
2021/12/21 02:41:25;;;;;;;;;;;1.90;82.30;;;;;;5072955;28;19919;-77
2021/12/21 02:43:51;;;;;;;;;;;1.90;82.30;;;;;;5072751;28;19911;-78
2021/12/21 02:46:16;;;;;;;;;;;1.90;82.30;;;;;;5054845;28;20283;-78
2021/12/21 02:48:42;;;;;;;;;;;1.90;82.30;;;;;;5072680;28;19987;-78
2021/12/21 02:51:08;;;;;;;;;;;1.90;82.40;;;;;;5054757;28;20435;-78
2021/12/21 02:53:33;;;;;;;;;;;1.90;82.40;;;;;;5055102;28;20007;-78
2021/12/21 02:55:59;;;;;;;;;;;1.90;82.40;;;;;;5076399;28;19911;-78
2021/12/21 02:58:24;;;;;;;;;;;1.90;82.40;;;;;;5076406;28;20347;-78
2021/12/21 03:00:52;;;;;;;;;;;1.90;82.30;;;;;;5076464;28;19954;-78
2021/12/21 03:03:18;;;;;;;;;;;1.80;82.30;;;;;;5058224;28;19958;-78
2021/12/21 03:05:53;;;;;;;;;;;1.80;82.20;;;;;;5058272;28;19912;-78
2021/12/21 03:16:14;;;;;;;;;;;1.80;82.30;;;;;;5076381;28;19958;-77
2021/12/21 03:18:39;;;;;;;;;;;1.70;82.30;;;;;;5057907;28;19948;-78
2021/12/21 03:21:05;;;;;;;;;;;1.70;82.30;;;;;;5075837;28;20268;-78
2021/12/21 03:23:30;;;;;;;;;;;1.80;82.30;;;;;;5058221;28;19912;-77
2021/12/21 03:25:56;;;;;;;;;;;1.70;82.30;;;;;;5057828;28;20367;-77
2021/12/21 03:28:21;;;;;;;;;;;1.70;82.30;;;;;;5058221;28;19951;-77
2021/12/21 03:30:47;;;;;;;;;;;1.70;82.30;;;;;;5057759;28;19905;-78
2021/12/21 03:33:12;;;;;;;;;;;1.70;82.30;;;;;;5075799;28;19954;-78
2021/12/21 03:35:37;;;;;;;;;;;1.70;82.90;;;;;;5057795;28;20348;-77
2021/12/21 03:38:03;;;;;;;;;;;1.70;82.40;;;;;;5057703;28;19953;-78
2021/12/21 03:40:32;;;;;;;;;;;1.70;82.40;;;;;;5057793;28;19904;-78
2021/12/21 03:42:58;;;;;;;;;;;1.70;83.10;;;;;;5057930;28;19916;-78
2021/12/21 03:45:24;;;;;;;;;;;1.70;82.50;;;;;;5057771;28;20290;-78
2021/12/21 03:47:49;;;;;;;;;;;1.70;82.50;;;;;;5075971;28;19904;-77
2021/12/21 03:50:19;;;;;;;;;;;1.70;82.50;;;;;;5058019;28;19904;-78
2021/12/21 03:52:44;;;;;;;;;;;1.70;82.50;;;;;;5058133;28;19935;-78
2021/12/21 03:55:10;;;;;;;;;;;1.70;82.60;;;;;;5058241;28;19904;-78
2021/12/21 03:57:36;;;;;;;;;;;1.70;82.70;;;;;;5058800;28;19995;-78
2021/12/21 04:00:03;;;;;;;;;;;1.60;82.60;;;;;;5058908;28;19905;-78
2021/12/21 04:02:29;;;;;;;;;;;1.60;82.60;;;;;;5059792;28;19904;-77
2021/12/21 04:04:58;;;;;;;;;;;1.60;82.60;;;;;;5059606;28;19911;-78
2021/12/21 04:07:23;;;;;;;;;;;1.60;82.60;;;;;;5059622;28;19908;-78
2021/12/21 04:09:49;;;;;;;;;;;1.60;82.70;;;;;;5060873;28;20323;-78
2021/12/21 04:12:14;;;;;;;;;;;1.60;82.80;;;;;;5061490;28;19909;-77
2021/12/21 04:14:40;;;;;;;;;;;1.60;82.80;;;;;;5061359;28;19916;-77
2021/12/21 04:17:06;;;;;;;;;;;1.60;82.80;;;;;;5058197;28;20377;-78
2021/12/21 04:19:32;;;;;;;;;;;1.60;82.80;;;;;;5074605;28;19905;-77
2021/12/21 04:21:57;;;;;;;;;;;1.60;82.80;;;;;;5074600;28;19905;-77
2021/12/21 04:24:23;;;;;;;;;;;1.60;82.70;;;;;;5074661;28;19988;-77
2021/12/21 04:26:48;;;;;;;;;;;1.60;82.70;;;;;;5056632;28;19954;-77
2021/12/21 04:29:14;;;;;;;;;;;1.60;82.70;;;;;;5056566;28;19908;-77
2021/12/21 04:31:40;;;;;;;;;;;1.60;82.70;;;;;;5056356;28;19919;-77
2021/12/21 04:34:06;;;;;;;;;;;1.60;82.80;;;;;;5056625;28;19905;-77
2021/12/21 04:36:32;;;;;;;;;;;1.60;82.80;;;;;;5074322;28;19911;-77
2021/12/21 04:38:58;;;;;;;;;;;1.60;82.80;;;;;;5056416;28;19965;-77
2021/12/21 04:41:27;;;;;;;;;;;1.60;82.80;;;;;;5056388;28;19919;-78
2021/12/21 04:43:54;;;;;;;;;;;1.50;82.80;;;;;;5074130;28;19911;-78
2021/12/21 04:46:19;;;;;;;;;;;1.50;82.80;;;;;;5056186;28;19914;-78
2021/12/21 04:48:45;;;;;;;;;;;1.50;82.90;;;;;;5056125;28;19971;-78
2021/12/21 04:51:10;;;;;;;;;;;1.50;82.90;;;;;;5056027;28;19999;-78
2021/12/21 04:53:36;;;;;;;;;;;1.50;82.90;;;;;;5055942;28;19940;-79
2021/12/21 04:56:02;;;;;;;;;;;1.50;83.00;;;;;;5056266;28;19951;-76
2021/12/21 04:58:28;;;;;;;;;;;1.50;83.60;;;;;;5056036;28;19958;-77
2021/12/21 05:00:53;;;;;;;;;;;1.40;82.90;;;;;;5055840;28;19908;-78
2021/12/21 05:03:19;;;;;;;;;;;1.40;82.90;;;;;;5055860;28;19905;-78
2021/12/21 05:05:44;;;;;;;;;;;1.40;83.00;;;;;;5073799;28;20352;-77
2021/12/21 05:08:18;;;;;;;;;;;1.40;83.00;;;;;;5055782;28;20002;-77
2021/12/21 05:10:53;;;;;;;;;;;1.40;83.00;;;;;;5073617;28;20311;-78
2021/12/21 05:13:19;;;;;;;;;;;1.40;83.00;;;;;;5055535;28;20105;-77
2021/12/21 05:15:45;;;;;;;;;;;1.40;83.10;;;;;;5052114;28;19928;-78
2021/12/21 05:18:11;;;;;;;;;;;1.40;83.10;;;;;;5035560;28;19905;-78
2021/12/21 05:20:37;;;;;;;;;;;1.40;83.10;;;;;;5035536;28;19904;-77
2021/12/21 05:23:03;;;;;;;;;;;1.40;83.10;;;;;;5035431;28;19911;-78
2021/12/21 05:25:29;;;;;;;;;;;1.40;83.10;;;;;;5035895;28;20003;-78
2021/12/21 05:27:54;;;;;;;;;;;1.30;83.10;;;;;;5035528;28;19943;-77
2021/12/21 05:30:20;;;;;;;;;;;1.30;83.10;;;;;;5052190;28;20003;-78
2021/12/21 05:32:45;;;;;;;;;;;1.30;83.10;;;;;;5035381;28;19916;-78
2021/12/21 05:35:11;;;;;;;;;;;1.30;83.10;;;;;;5035717;28;19904;-79
2021/12/21 05:37:39;;;;;;;;;;;1.40;83.10;;;;;;5053331;28;20411;-78
2021/12/21 05:40:14;;;;;;;;;;;1.40;83.20;;;;;;5035437;28;19996;-78
2021/12/21 05:42:40;;;;;;;;;;;1.30;83.10;;;;;;5052064;28;19912;-78
2021/12/21 05:45:06;;;;;;;;;;;1.30;83.10;;;;;;5035487;28;20294;-78
2021/12/21 05:47:32;;;;;;;;;;;1.30;83.10;;;;;;5052266;28;20370;-78
2021/12/21 05:49:57;;;;;;;;;;;1.30;83.10;;;;;;5035328;28;19995;-78
2021/12/21 05:52:23;;;;;;;;;;;1.30;83.10;;;;;;5035490;28;19912;-78
2021/12/21 05:54:49;;;;;;;;;;;1.30;83.10;;;;;;5035190;28;19912;-78
2021/12/21 05:57:15;;;;;;;;;;;1.30;83.20;;;;;;5051779;28;19905;-77
2021/12/21 05:59:40;;;;;;;;;;;1.30;83.10;;;;;;5051681;28;19905;-79
2021/12/21 06:02:06;;;;;;;;;;;1.30;83.10;;;;;;5035062;28;19944;-78
2021/12/21 06:04:31;;;;;;;;;;;1.30;83.10;;;;;;5035041;28;19911;-77
2021/12/21 06:06:57;;;;;;;;;;;1.30;83.10;;;;;;5035102;28;19918;-78
2021/12/21 06:09:22;;;;;;;;;;;1.30;83.10;;;;;;5035199;28;20268;-78
2021/12/21 06:12:11;;;;;;;;;;;1.30;83.10;;;;;;5034887;28;19909;-78
2021/12/21 06:28:04;;;;;;;;;;;1.20;83.10;;;;;;5072745;28;19911;-78
2021/12/21 06:30:29;;;;;;;;;;;1.20;83.10;;;;;;5058326;28;19904;-78
2021/12/21 06:32:55;;;;;;;;;;;1.20;83.20;;;;;;5058762;28;19908;-78
2021/12/21 06:35:20;;;;;;;;;;;1.20;83.20;;;;;;5076634;28;20379;-78
2021/12/21 06:37:46;;;;;;;;;;;1.20;83.20;;;;;;5058827;28;19904;-77
2021/12/21 06:40:12;;;;;;;;;;;1.20;83.20;;;;;;5058675;28;20011;-78
2021/12/21 06:42:39;;;;;;;;;;;1.20;83.20;;;;;;5058735;28;19904;-79
2021/12/21 06:45:12;;;;;;;;;;;1.20;83.20;;;;;;5058596;28;19908;-78
2021/12/21 06:53:05;;;;;;;;;;;1.20;83.20;;;;;;5076222;28;20283;-77
2021/12/21 06:55:31;;;;;;;;;;;1.20;83.20;;;;;;5058486;28;19904;-77
2021/12/21 06:57:56;;;;;;;;;;;1.10;83.10;;;;;;5058179;28;20003;-78
2021/12/21 07:00:22;;;;;;;;;;;1.10;83.20;;;;;;5058251;28;19912;-78
2021/12/21 07:02:47;;;;;;;;;;;1.10;83.30;;;;;;5076248;28;19908;-78
2021/12/21 07:05:13;;;;;;;;;;;1.10;83.30;;;;;;5058922;28;19908;-78
2021/12/21 07:07:39;;;;;;;;;;;1.10;83.30;;;;;;5058237;28;20302;-77
2021/12/21 07:10:08;;;;;;;;;;;1.10;83.30;;;;;;5058493;28;19904;-78
2021/12/21 07:18:03;;;;;;;;;;;1.20;83.40;;;;;;5057995;28;19912;-78
2021/12/21 07:18:13;;;;;;;;;;;1.20;83.40;;;;;;5076256;28;19915;-77
2021/12/21 07:20:39;;;;;;;;;;;1.20;83.50;;;;;;5057840;28;19908;-77
2021/12/21 07:23:05;;;;;;;;;;;1.20;83.40;;;;;;5057850;28;20298;-77
2021/12/21 07:25:30;;;;;;;;;;;1.20;83.70;;;;;;5075855;28;19910;-77
2021/12/21 07:27:56;;;;;;;;;;;1.20;83.40;;;;;;5057644;28;20283;-77
2021/12/21 07:30:22;;;;;;;;;;;1.20;83.50;;;;;;5058044;28;19937;-77
2021/12/21 07:32:48;;;;;;;;;;;1.10;83.50;;;;;;5057653;28;19908;-78
2021/12/21 07:35:13;;;;;;;;;;;1.10;83.50;;;;;;5057749;28;19961;-77
2021/12/21 07:37:39;;;;;;;;;;;1.20;83.50;;;;;;5057617;28;19908;-79
2021/12/21 07:40:05;;;;;;;;;;;1.20;83.50;;;;;;5056690;28;20417;-78
2021/12/21 07:42:31;;;;;;;;;;;1.20;83.50;;;;;;5057355;28;19943;-76
2021/12/21 07:44:57;;;;;;;;;;;1.20;83.50;;;;;;5057766;28;19905;-78
2021/12/21 07:47:23;;;;;;;;;;;1.10;83.40;;;;;;5057524;28;19999;-79
2021/12/21 07:49:48;;;;;;;;;;;1.10;83.40;;;;;;5057474;28;19959;-76
2021/12/21 07:52:14;;;;;;;;;;;1.10;83.50;;;;;;5057359;28;20008;-79
2021/12/21 07:54:39;;;;;;;;;;;1.10;83.50;;;;;;5075268;28;19908;-76
2021/12/21 07:57:06;;;;;;;;;;;1.10;83.50;;;;;;5058569;28;19962;-76
2021/12/21 07:59:33;;;;;;;;;;;1.10;83.50;;;;;;5075462;28;20371;-79
2021/12/21 08:01:59;;;;;;;;;;;1.10;83.50;;;;;;5075158;28;19991;-75
2021/12/21 08:04:27;;;;;;;;;;;1.10;83.50;;;;;;5056967;28;19942;-78
2021/12/21 08:06:55;;;;;;;;;;;1.10;83.40;;;;;;5057198;28;19904;-78
2021/12/21 08:09:25;;;;;;;;;;;1.10;83.40;;;;;;5075012;28;19961;-78
2021/12/21 08:14:36;;;;;;;;;;;1.20;83.50;;;;;;5074879;28;19923;-75
2021/12/21 08:17:01;;;;;;;;;;;1.20;83.40;;;;;;5074924;28;19904;-78
2021/12/21 08:19:27;;;;;;;;;;;1.20;83.30;;;;;;5056778;28;20321;-76
2021/12/21 08:21:52;;;;;;;;;;;1.30;83.40;;;;;;5056842;28;20051;-76
2021/12/21 08:24:18;;;;;;;;;;;1.30;83.30;;;;;;5056751;28;20098;-75
2021/12/21 08:26:43;;;;;;;;;;;1.30;83.30;;;;;;5056767;28;20003;-77
2021/12/21 08:29:09;;;;;;;;;;;1.30;83.20;;;;;;5056578;28;19955;-77
2021/12/21 08:31:34;;;;;;;;;;;1.40;83.30;;;;;;5056540;28;20313;-78
2021/12/21 08:34:00;;;;;;;;;;;1.40;83.30;;;;;;5056689;28;19904;-77
2021/12/21 08:36:27;;;;;;;;;;;1.50;83.30;;;;;;5057573;28;19905;-76
2021/12/21 08:38:52;;;;;;;;;;;1.70;83.30;;;;;;5075695;28;19915;-76
2021/12/21 08:41:20;;;;;;;;;;;1.90;82.90;;;;;;5075745;28;19908;-76
2021/12/21 08:43:46;;;;;;;;;;;1.90;82.70;;;;;;5057223;28;19958;-76
2021/12/21 08:46:11;;;;;;;;;;;1.90;82.60;;;;;;5056967;28;19904;-76
2021/12/21 08:48:38;;;;;;;;;;;1.90;82.70;;;;;;5056534;28;20314;-76
2021/12/21 08:54:07;;;;;;;;;;;1.90;82.70;;;;;;5075421;28;19957;-76
2021/12/21 08:56:32;;;;;;;;;;;1.90;82.70;;;;;;5057130;28;19905;-76
2021/12/21 08:58:58;;;;;;;;;;;1.90;82.70;;;;;;5057181;28;19969;-77
2021/12/21 09:01:23;;;;;;;;;;;1.90;82.60;;;;;;5056751;28;19998;-76
2021/12/21 09:03:49;;;;;;;;;;;1.90;82.60;;;;;;5055805;28;19909;-76
2021/12/21 09:06:15;;;;;;;;;;;2.00;82.60;;;;;;5056468;28;19904;-76
2021/12/21 09:08:41;;;;;;;;;;;2.00;82.60;;;;;;5056309;28;20283;-75
2021/12/21 09:11:06;;;;;;;;;;;2.10;82.50;;;;;;5056431;28;19905;-76
2021/12/21 09:13:32;;;;;;;;;;;2.10;82.40;;;;;;5055557;28;19908;-76
2021/12/21 09:15:57;;;;;;;;;;;2.20;82.40;;;;;;5055889;28;19908;-77
2021/12/21 09:18:23;;;;;;;;;;;2.20;82.30;;;;;;5055804;28;19914;-76
2021/12/21 09:20:49;;;;;;;;;;;2.20;82.30;;;;;;5055671;28;19913;-76
2021/12/21 09:23:16;;;;;;;;;;;2.30;82.20;;;;;;5056578;28;19910;-79
2021/12/21 09:25:42;;;;;;;;;;;2.30;82.20;;;;;;5056183;28;20351;-76
2021/12/21 09:28:07;;;;;;;;;;;2.40;82.10;;;;;;5056435;28;19910;-76
2021/12/21 09:30:33;;;;;;;;;;;2.40;82.00;;;;;;5073163;28;19961;-78
2021/12/21 09:32:59;;;;;;;;;;;2.40;81.90;;;;;;5055447;28;19919;-77
2021/12/21 09:35:25;;;;;;;;;;;2.50;81.90;;;;;;5073530;28;19919;-77
2021/12/21 09:40:55;;;;;;;;;;;2.60;81.90;;;;;;5073596;28;19915;-77
2021/12/21 09:43:21;;;;;;;;;;;2.60;81.70;;;;;;5055423;28;19911;-76
2021/12/21 09:45:46;;;;;;;;;;;2.70;81.70;;;;;;5055418;28;20339;-77
2021/12/21 09:48:12;;;;;;;;;;;2.70;81.60;;;;;;5055377;28;19911;-76
2021/12/21 09:50:38;;;;;;;;;;;2.80;81.60;;;;;;5073271;28;19904;-76
2021/12/21 09:53:04;;;;;;;;;;;2.80;81.50;;;;;;5055474;28;19943;-77
2021/12/21 09:55:30;;;;;;;;;;;2.80;81.50;;;;;;5031292;28;20285;-76
2021/12/21 09:57:57;;;;;;;;;;;2.90;81.50;;;;;;5031175;28;20005;-78
2021/12/21 10:00:27;;;;;;;;;;;3.00;81.40;;;;;;5031408;28;19942;-76
2021/12/21 10:03:01;;;;;;;;;;;3.00;81.30;;;;;;5031074;28;19905;-73
2021/12/21 10:05:29;;;;;;;;;;;3.00;81.30;;;;;;5034618;28;20113;-74
2021/12/21 10:08:06;;;;;;;;;;;3.10;81.20;;;;;;5035119;28;19912;-74
2021/12/21 10:10:33;;;;;;;;;;;3.10;81.20;;;;;;5035109;28;19928;-74
2021/12/21 10:13:06;;;;;;;;;;;3.10;81.10;;;;;;5034775;28;19913;-74
2021/12/21 10:15:36;;;;;;;;;;;3.20;81.10;;;;;;5034942;28;19940;-74
2021/12/21 10:18:01;;;;;;;;;;;3.20;81.00;;;;;;5034912;28;19905;-75
2021/12/21 10:20:31;;;;;;;;;;;3.30;81.00;;;;;;5034739;28;19912;-73
2021/12/21 10:22:57;;;;;;;;;;;3.30;80.90;;;;;;5034786;28;19905;-74
2021/12/21 10:25:23;;;;;;;;;;;3.30;80.80;;;;;;5055574;28;19905;-74
2021/12/21 10:27:49;;;;;;;;;;;3.40;80.80;;;;;;5074706;28;20399;-74
2021/12/21 10:30:14;;;;;;;;;;;3.40;80.70;;;;;;5074702;28;19904;-73
2021/12/21 10:32:48;;;;;;;;;;;3.40;80.70;;;;;;5074532;28;19909;-75
2021/12/21 10:35:14;;;;;;;;;;;3.50;80.70;;;;;;5074654;28;19905;-73
2021/12/21 10:37:40;;;;;;;;;;;3.50;80.60;;;;;;5057711;28;20003;-73
2021/12/21 10:40:06;;;;;;;;;;;3.50;80.50;;;;;;5074404;28;19912;-73
2021/12/21 10:42:31;;;;;;;;;;;3.60;80.50;;;;;;5057697;28;19905;-74
2021/12/21 10:45:06;;;;;;;;;;;3.60;80.50;;;;;;5057559;28;19904;-74
2021/12/21 10:47:32;;;;;;;;;;;3.60;80.40;;;;;;5074369;28;20355;-75
2021/12/21 10:49:58;;;;;;;;;;;3.60;80.30;;;;;;5054759;28;20032;-75
2021/12/21 10:52:23;;;;;;;;;;;3.70;80.40;;;;;;5057654;28;20042;-75
2021/12/21 10:54:50;;;;;;;;;;;3.70;80.30;;;;;;5057475;28;19904;-73
2021/12/21 10:57:17;;;;;;;;;;;3.70;80.30;;;;;;5057532;28;20399;-74
2021/12/21 11:00:19;;;;;;;;;;;3.80;80.40;;;;;;5057747;28;20391;-75
2021/12/21 11:02:49;;;;;;;;;;;3.80;80.30;;;;;;5065385;28;20364;-73
2021/12/21 11:05:16;;;;;;;;;;;3.80;80.30;;;;;;5038400;28;19905;-73
2021/12/21 11:07:53;;;;;;;;;;;3.90;80.30;;;;;;5038226;28;19912;-74
2021/12/21 11:10:28;;;;;;;;;;;3.90;80.30;;;;;;5038236;28;19911;-75
2021/12/21 11:12:55;;;;;;;;;;;3.90;80.20;;;;;;5037986;28;19913;-75
2021/12/21 11:15:22;;;;;;;;;;;4.00;80.20;;;;;;5072173;28;19916;-74
2021/12/21 11:17:48;;;;;;;;;;;4.10;80.10;;;;;;5058080;28;19912;-73
2021/12/21 11:20:14;;;;;;;;;;;4.10;80.10;;;;;;5057888;28;19908;-75
2021/12/21 11:22:41;;;;;;;;;;;4.20;80.10;;;;;;5075982;28;19943;-74
2021/12/21 11:25:07;;;;;;;;;;;4.20;80.10;;;;;;5058233;28;19904;-74
2021/12/21 11:27:34;;;;;;;;;;;4.30;80.00;;;;;;5057867;28;19909;-74
2021/12/21 11:30:03;;;;;;;;;;;4.30;79.90;;;;;;5058354;28;19969;-75
2021/12/21 11:32:31;;;;;;;;;;;4.30;80.50;;;;;;5075729;28;19995;-73
2021/12/21 11:37:44;;;;;;;;;;;4.40;79.80;;;;;;5034648;28;19936;-74
2021/12/21 11:40:12;;;;;;;;;;;4.50;79.70;;;;;;5057643;28;19999;-74
2021/12/21 11:42:42;;;;;;;;;;;4.50;79.70;;;;;;5075807;28;19904;-73
2021/12/21 11:45:12;;;;;;;;;;;4.50;79.60;;;;;;5075560;28;19951;-74
2021/12/21 11:50:43;;;;;;;;;;;4.60;79.60;;;;;;5075475;28;20317;-73
2021/12/21 11:53:12;;;;;;;;;;;4.60;79.60;;;;;;5057186;28;19908;-74
2021/12/21 11:55:39;;;;;;;;;;;4.60;79.50;;;;;;5057421;28;19904;-75
2021/12/21 11:58:17;;;;;;;;;;;4.70;79.50;;;;;;5075394;28;19927;-73
2021/12/21 12:00:47;;;;;;;;;;;4.70;79.50;;;;;;5057217;28;19911;-74
2021/12/21 12:03:15;;;;;;;;;;;4.80;79.40;;;;;;5057274;28;20272;-75
2021/12/21 12:05:42;;;;;;;;;;;4.80;79.30;;;;;;5057329;28;20367;-75
2021/12/21 12:08:09;;;;;;;;;;;4.80;79.30;;;;;;5075373;28;19912;-74
2021/12/21 12:10:37;;;;;;;;;;;4.80;79.30;;;;;;5057104;28;19946;-74
2021/12/21 12:13:13;;;;;;;;;;;4.80;79.30;;;;;;5074835;28;19908;-74
2021/12/21 12:16:05;;;;;;;;;;;4.90;79.30;;;;;;5056766;28;20383;-73
2021/12/21 12:18:33;;;;;;;;;;;4.90;79.20;;;;;;5053097;28;19904;-74
2021/12/21 12:24:01;;;;;;;;;;;5.00;79.20;;;;;;5074929;28;20411;-75
2021/12/21 12:26:28;;;;;;;;;;;5.00;79.10;;;;;;5055972;28;19947;-74
2021/12/21 12:29:09;;;;;;;;;;;5.00;79.10;;;;;;5056896;28;19951;-74
2021/12/21 12:31:36;;;;;;;;;;;5.00;79.10;;;;;;5074633;28;20003;-75
2021/12/21 12:34:28;;;;;;;;;;;5.10;79.10;;;;;;5056635;28;19951;-74
2021/12/21 12:36:55;;;;;;;;;;;5.10;78.90;;;;;;5056468;28;19905;-75
2021/12/21 12:39:26;;;;;;;;;;;5.10;78.90;;;;;;5056818;28;20236;-75
2021/12/21 12:41:52;;;;;;;;;;;5.20;79.10;;;;;;5074414;28;19904;-74
2021/12/21 12:44:22;;;;;;;;;;;5.20;79.00;;;;;;5056448;28;19904;-74
2021/12/21 12:46:55;;;;;;;;;;;5.20;78.90;;;;;;5056329;28;20019;-74
2021/12/21 12:49:25;;;;;;;;;;;5.20;78.90;;;;;;5056156;28;19904;-74
2021/12/21 12:51:51;;;;;;;;;;;5.20;78.90;;;;;;5074173;28;19908;-74
2021/12/21 12:54:18;;;;;;;;;;;5.30;78.90;;;;;;5056101;28;19966;-74
2021/12/21 12:56:44;;;;;;;;;;;5.30;78.80;;;;;;5056030;28;19908;-75
2021/12/21 12:59:09;;;;;;;;;;;5.40;78.80;;;;;;5056095;28;19904;-76
2021/12/21 13:01:39;;;;;;;;;;;5.40;78.70;;;;;;5056079;28;19904;-75
2021/12/21 13:04:09;;;;;;;;;;;5.40;78.70;;;;;;5073797;28;19904;-74
2021/12/21 13:06:35;;;;;;;;;;;5.40;78.70;;;;;;5073695;28;20046;-74
2021/12/21 13:09:03;;;;;;;;;;;5.40;79.10;;;;;;5055782;28;19904;-74
2021/12/21 13:11:30;;;;;;;;;;;5.40;78.40;;;;;;5055556;28;20002;-75
2021/12/21 13:13:57;;;;;;;;;;;5.40;78.40;;;;;;5055567;28;20283;-74
2021/12/21 13:16:24;;;;;;;;;;;5.40;78.30;;;;;;5073785;28;20370;-75
2021/12/21 13:18:51;;;;;;;;;;;5.50;78.20;;;;;;5073577;28;19905;-74
2021/12/21 13:21:21;;;;;;;;;;;5.50;78.20;;;;;;5055687;28;20390;-75
2021/12/21 13:23:50;;;;;;;;;;;5.50;78.20;;;;;;5055949;28;20363;-74
2021/12/21 13:26:16;;;;;;;;;;;5.50;78.20;;;;;;5055549;28;19904;-74
2021/12/21 13:28:53;;;;;;;;;;;5.50;78.10;;;;;;5073505;28;19962;-75
2021/12/21 13:31:20;;;;;;;;;;;5.50;78.10;;;;;;5055486;28;19904;-75
2021/12/21 13:33:55;;;;;;;;;;;5.50;78.10;;;;;;5073371;28;19915;-75
2021/12/21 13:36:30;;;;;;;;;;;5.50;78.10;;;;;;5073386;28;19904;-75
2021/12/21 13:38:56;;;;;;;;;;;5.60;78.00;;;;;;5055219;28;19941;-74
2021/12/21 13:41:22;;;;;;;;;;;5.60;78.00;;;;;;5055279;28;19904;-75
2021/12/21 13:43:55;;;;;;;;;;;5.60;77.90;;;;;;5073652;28;19927;-74
2021/12/21 13:46:24;;;;;;;;;;;5.70;78.00;;;;;;5074073;28;19904;-79
2021/12/21 13:48:53;;;;;;;;;;;5.70;77.90;;;;;;5055824;28;19912;-75
2021/12/21 13:51:19;;;;;;;;;;;5.70;78.00;;;;;;5055130;28;19954;-74
2021/12/21 13:53:50;;;;;;;;;;;5.70;77.80;;;;;;5073058;28;20015;-74
2021/12/21 13:56:20;;;;;;;;;;;5.70;77.80;;;;;;5073184;28;19912;-74
2021/12/21 13:58:46;;;;;;;;;;;5.60;77.70;;;;;;5054952;28;19909;-75
2021/12/21 14:01:19;;;;;;;;;;;5.60;77.80;;;;;;5055060;28;20347;-74
2021/12/21 14:03:51;;;;;;;;;;;5.60;78.50;;;;;;5073089;28;19953;-74
2021/12/21 14:09:21;;;;;;;;;;;5.50;77.90;;;;;;5073125;28;19958;-75
2021/12/21 14:11:52;;;;;;;;;;;5.60;77.90;;;;;;5054976;28;19940;-75
2021/12/21 14:14:18;;;;;;;;;;;5.60;77.90;;;;;;5054900;28;20256;-74
2021/12/21 14:16:48;;;;;;;;;;;5.60;77.80;;;;;;5055024;28;19904;-74
2021/12/21 14:19:17;;;;;;;;;;;5.60;77.80;;;;;;5072949;28;19912;-76
2021/12/21 14:21:44;;;;;;;;;;;5.60;77.70;;;;;;5054893;28;19911;-74
2021/12/21 14:24:10;;;;;;;;;;;5.70;77.70;;;;;;5072833;28;19905;-74
2021/12/21 14:26:40;;;;;;;;;;;5.60;77.60;;;;;;5054735;28;19927;-73
2021/12/21 14:29:07;;;;;;;;;;;5.60;77.70;;;;;;5054946;28;19904;-73
2021/12/21 14:34:37;;;;;;;;;;;5.50;77.80;;;;;;5073355;28;19912;-73
2021/12/21 14:37:05;;;;;;;;;;;5.40;77.90;;;;;;5054733;28;19904;-74
2021/12/21 14:39:31;;;;;;;;;;;5.40;78.10;;;;;;5054656;28;19947;-73
2021/12/21 14:41:58;;;;;;;;;;;5.30;78.10;;;;;;5054897;28;19959;-74
2021/12/21 14:44:24;;;;;;;;;;;5.20;78.20;;;;;;5054513;28;19974;-73
2021/12/21 14:46:52;;;;;;;;;;;5.20;78.40;;;;;;5072956;28;20378;-73
2021/12/21 14:49:31;;;;;;;;;;;5.10;78.50;;;;;;5072846;28;19905;-74
2021/12/21 14:51:59;;;;;;;;;;;5.00;78.50;;;;;;5058560;28;20008;-74
2021/12/21 14:54:28;;;;;;;;;;;5.00;78.60;;;;;;5058306;28;19905;-74
2021/12/21 14:57:01;;;;;;;;;;;4.90;78.70;;;;;;5058269;28;20492;-74
2021/12/21 15:02:50;;;;;;;;;;;4.80;78.90;;;;;;5076697;28;19992;-74
2021/12/21 15:05:18;;;;;;;;;;;4.70;79.00;;;;;;5058406;28;19904;-74
2021/12/21 15:07:44;;;;;;;;;;;4.60;79.10;;;;;;5078195;28;20409;-74
2021/12/21 15:13:15;;;;;;;;;;;4.50;79.20;;;;;;5076264;28;20398;-74
2021/12/21 15:15:41;;;;;;;;;;;4.50;79.30;;;;;;5058031;28;20367;-75
2021/12/21 15:18:10;;;;;;;;;;;4.40;79.40;;;;;;5058075;28;19905;-74
2021/12/21 15:20:35;;;;;;;;;;;4.40;79.50;;;;;;5058018;28;20359;-73
2021/12/21 15:23:01;;;;;;;;;;;4.30;79.50;;;;;;5058324;28;19911;-73
2021/12/21 15:25:27;;;;;;;;;;;4.30;79.60;;;;;;5057637;28;19904;-74
2021/12/21 15:27:53;;;;;;;;;;;4.30;79.70;;;;;;5057991;28;19904;-73
2021/12/21 15:30:20;;;;;;;;;;;4.20;79.80;;;;;;5057600;28;19904;-74
2021/12/21 15:32:47;;;;;;;;;;;4.10;79.80;;;;;;5057344;28;19908;-73
2021/12/21 15:35:13;;;;;;;;;;;4.10;79.90;;;;;;5057582;28;19904;-74
2021/12/21 15:37:39;;;;;;;;;;;4.10;80.00;;;;;;5057601;28;19931;-74
2021/12/21 15:40:07;;;;;;;;;;;4.00;80.00;;;;;;5057466;28;19905;-73
2021/12/21 15:42:34;;;;;;;;;;;4.00;80.00;;;;;;5075536;28;20420;-74
2021/12/21 15:45:00;;;;;;;;;;;4.00;80.00;;;;;;5075672;28;20382;-73
2021/12/21 15:47:26;;;;;;;;;;;3.90;80.00;;;;;;5057052;28;19905;-74
2021/12/21 15:49:52;;;;;;;;;;;3.90;80.10;;;;;;5057322;28;19904;-73
2021/12/21 15:52:25;;;;;;;;;;;3.90;80.10;;;;;;5057148;28;19987;-74
2021/12/21 16:00:57;;;;;;;;;;;3.80;80.20;;;;;;5074564;28;19947;-74
2021/12/21 16:03:44;;;;;;;;;;;3.80;80.30;;;;;;5056706;28;20038;-73
2021/12/21 16:06:11;;;;;;;;;;;3.70;80.30;;;;;;5057011;28;19904;-74